Time;durP1;ratioP1;P1;durP2;ratioP2;P2;SDS_P1;SDS_P2;PMS_P1;PMS_P2;Temp;Humidity;BMP_temperature;BMP_pressure;BME280_temperature;BME280_humidity;BME280_pressure;Samples;Min_cycle;Max_cycle;Signal;HPM_P1;HPM_P2
2023/07/06 00:00:41;;;;;;;21.80;8.20;;;;;;;20.89;100.00;98741.79;67805;1277;1016353;-66
2023/07/06 00:04:04;;;;;;;22.20;7.90;;;;;;;20.84;100.00;98743.88;67861;1277;1019044;-72
2023/07/06 00:07:07;;;;;;;20.50;5.30;;;;;;;20.98;100.00;98735.09;67867;1277;1016014;-72
2023/07/06 00:10:10;;;;;;;15.80;4.10;;;;;;;21.10;100.00;98728.15;67824;1277;1016386;-71
2023/07/06 00:13:13;;;;;;;17.00;4.30;;;;;;;21.05;100.00;98721.64;67808;1277;1016340;-70
2023/07/06 00:16:16;;;;;;;18.70;4.40;;;;;;;20.95;100.00;98724.45;67843;1277;1016492;-73
2023/07/06 00:19:19;;;;;;;15.80;4.70;;;;;;;20.91;100.00;98723.28;67880;1277;1016538;-73
2023/07/06 00:22:23;;;;;;;16.10;4.50;;;;;;;21.07;100.00;98721.05;67783;1277;1016222;-68
2023/07/06 00:25:27;;;;;;;17.60;4.30;;;;;;;21.06;100.00;98724.68;67827;1277;1016224;-67
2023/07/06 00:28:29;;;;;;;17.20;3.90;;;;;;;21.04;100.00;98726.67;67871;1277;1016494;-69
2023/07/06 00:31:50;;;;;;;14.70;3.70;;;;;;;20.87;100.00;98726.30;67867;1277;1016353;-67
2023/07/06 00:34:57;;;;;;;16.30;4.30;;;;;;;20.78;100.00;98720.13;67812;1277;1016247;-66
2023/07/06 00:38:00;;;;;;;17.30;3.70;;;;;;;20.49;100.00;98727.61;67846;1277;1016392;-67
2023/07/06 00:41:02;;;;;;;12.20;3.60;;;;;;;20.39;100.00;98728.27;67790;1277;1018525;-66
2023/07/06 00:44:05;;;;;;;12.10;4.00;;;;;;;20.43;100.00;98732.78;67767;1277;1016161;-67
2023/07/06 00:47:07;;;;;;;14.40;3.80;;;;;;;20.37;100.00;98734.69;67843;1277;1016415;-67
2023/07/06 00:50:11;;;;;;;15.20;3.90;;;;;;;20.28;100.00;98737.60;67852;1277;1016356;-67
2023/07/06 00:53:13;;;;;;;14.60;3.80;;;;;;;20.14;100.00;98737.36;67827;1277;1016525;-68
2023/07/06 00:56:16;;;;;;;18.30;3.90;;;;;;;20.08;100.00;98736.59;67840;1277;1016429;-67
2023/07/06 00:59:19;;;;;;;16.80;3.90;;;;;;;20.08;100.00;98734.79;67802;1277;1016415;-69
2023/07/06 01:02:23;;;;;;;16.80;4.00;;;;;;;19.99;100.00;98736.45;67869;1277;1016425;-67
2023/07/06 01:05:26;;;;;;;19.30;4.10;;;;;;;19.97;100.00;98736.14;67870;1277;1016301;-67
2023/07/06 01:08:28;;;;;;;16.60;4.40;;;;;;;19.95;100.00;98733.11;67820;1277;1016392;-66
2023/07/06 01:11:32;;;;;;;17.40;4.40;;;;;;;20.00;100.00;98735.04;67860;1277;1016379;-67
2023/07/06 01:14:35;;;;;;;19.80;4.70;;;;;;;20.00;100.00;98740.42;67813;1273;1016055;-67
2023/07/06 01:17:38;;;;;;;19.30;5.00;;;;;;;20.01;100.00;98744.20;67814;1277;1016276;-68
2023/07/06 01:20:41;;;;;;;19.40;5.00;;;;;;;19.98;100.00;98740.23;67805;1277;1016450;-67
2023/07/06 01:23:44;;;;;;;21.20;4.90;;;;;;;20.04;100.00;98740.91;67833;1277;1016356;-67
2023/07/06 01:26:48;;;;;;;15.10;4.70;;;;;;;20.00;100.00;98742.48;67830;1277;1016572;-67
2023/07/06 01:29:50;;;;;;;19.90;5.00;;;;;;;19.83;100.00;98745.25;67856;1277;1016172;-67
2023/07/06 01:32:54;;;;;;;19.70;5.10;;;;;;;19.74;100.00;98748.69;67840;1277;1016361;-68
2023/07/06 01:35:57;;;;;;;17.70;4.90;;;;;;;19.72;100.00;98748.11;67863;1277;1016507;-67
2023/07/06 01:39:01;;;;;;;22.70;5.30;;;;;;;19.72;100.00;98747.37;67834;1277;1016450;-67
2023/07/06 01:42:06;;;;;;;21.60;5.60;;;;;;;19.67;100.00;98743.67;67796;1277;1016278;-67
2023/07/06 01:45:09;;;;;;;20.50;5.80;;;;;;;19.76;100.00;98750.95;67869;1277;1016310;-67
2023/07/06 01:48:12;;;;;;;19.50;5.10;;;;;;;19.81;100.00;98743.20;67762;1277;1015841;-69
2023/07/06 01:51:16;;;;;;;19.70;5.00;;;;;;;19.91;100.00;98750.88;67865;1277;1016408;-67
2023/07/06 01:54:18;;;;;;;21.40;5.50;;;;;;;19.90;100.00;98745.87;67828;1277;1016454;-68
2023/07/06 01:57:21;;;;;;;23.30;6.20;;;;;;;19.95;100.00;98751.02;67807;1277;1016366;-69
2023/07/06 02:00:24;;;;;;;19.70;5.50;;;;;;;19.96;100.00;98746.69;67817;1277;1016527;-67
2023/07/06 02:03:28;;;;;;;;;;;;;;;20.03;100.00;98750.03;67877;1277;1016365;-67
2023/07/06 02:06:31;;;;;;;21.70;6.30;;;;;;;20.06;100.00;98750.05;67822;1277;1016525;-67
2023/07/06 02:09:42;;;;;;;30.10;7.20;;;;;;;19.92;100.00;98747.55;67835;1277;1016347;-67
2023/07/06 02:12:47;;;;;;;24.30;6.90;;;;;;;19.91;100.00;98760.43;67853;1277;1016082;-67
2023/07/06 02:15:50;;;;;;;22.30;5.90;;;;;;;19.85;100.00;98762.86;67727;1277;1016475;-67
2023/07/06 02:18:53;;;;;;;20.90;6.20;;;;;;;19.90;100.00;98767.70;67836;1277;1016487;-67
2023/07/06 02:21:56;;;;;;;20.10;6.20;;;;;;;19.83;100.00;98766.96;67830;1277;1018022;-67
2023/07/06 02:25:01;;;;;;;;;;;;;;;19.72;100.00;98770.36;67831;1277;1016616;-66
2023/07/06 02:28:05;;;;;;;22.60;6.40;;;;;;;19.67;100.00;98772.60;67794;1277;1016355;-67
2023/07/06 02:31:09;;;;;;;21.90;6.40;;;;;;;19.55;100.00;98778.05;67827;1277;1016432;-68
2023/07/06 02:34:12;;;;;;;22.50;6.10;;;;;;;19.32;100.00;98776.54;67813;1277;1016435;-67
2023/07/06 02:37:15;;;;;;;22.20;6.40;;;;;;;19.18;100.00;98772.24;67792;1277;1016386;-66
2023/07/06 02:40:18;;;;;;;23.80;6.60;;;;;;;19.35;100.00;98770.05;67855;1277;1016074;-68
2023/07/06 02:43:21;;;;;;;23.80;6.70;;;;;;;19.30;100.00;98778.91;67806;1277;1016510;-67
2023/07/06 04:13:47;;;;;;;20.30;6.60;;;;;;;17.74;100.00;98868.10;131747;1311;557873;-74
2023/07/06 04:16:49;;;;;;;22.10;6.70;;;;;;;18.63;100.00;98870.12;130542;1277;5317975;-73
2023/07/06 04:19:53;;;;;;;22.40;6.30;;;;;;;19.53;100.00;98875.25;134567;1292;23945;-74
2023/07/06 04:22:55;;;;;;;19.70;6.50;;;;;;;20.09;100.00;98874.77;134559;1292;22553;-72
2023/07/06 04:25:59;;;;;;;21.70;6.50;;;;;;;22.58;100.00;98878.69;134569;1292;22562;-72
2023/07/06 04:29:02;;;;;;;21.00;6.70;;;;;;;23.26;100.00;98884.50;134353;1292;25450;-73
2023/07/06 04:32:04;;;;;;;28.50;7.00;;;;;;;23.32;100.00;98876.84;134467;1281;22539;-73
2023/07/06 04:35:07;;;;;;;23.10;6.90;;;;;;;22.98;100.00;98861.73;134535;1292;22589;-72
2023/07/06 04:38:10;;;;;;;20.70;6.00;;;;;;;23.57;100.00;98858.01;134430;1292;22613;-74
2023/07/06 04:41:13;;;;;;;20.40;6.50;;;;;;;23.67;100.00;98859.73;134514;1292;22569;-71
2023/07/06 04:44:18;;;;;;;20.10;6.00;;;;;;;23.52;100.00;98868.77;134376;1292;22548;-72
2023/07/06 04:47:23;;;;;;;19.70;5.30;;;;;;;24.28;100.00;98869.98;134938;1283;22563;-71
2023/07/06 04:50:26;;;;;;;25.20;6.20;;;;;;;23.40;100.00;98881.92;134922;1283;22523;-71
2023/07/06 04:53:28;;;;;;;19.50;5.70;;;;;;;23.69;100.00;98897.54;135016;1283;25233;-73
2023/07/06 04:56:31;;;;;;;21.00;5.30;;;;;;;24.00;100.00;98912.69;135082;1283;22530;-71
2023/07/06 04:59:33;;;;;;;16.70;4.90;;;;;;;24.40;100.00;98918.46;135044;1283;22563;-74
2023/07/06 05:02:36;;;;;;;18.50;5.30;;;;;;;23.88;100.00;98923.70;135082;1283;22581;-74
2023/07/06 05:05:40;;;;;;;17.70;4.80;;;;;;;24.00;100.00;98931.13;135107;1283;22536;-74
2023/07/06 05:08:43;;;;;;;24.40;5.50;;;;;;;24.45;100.00;98927.86;135093;1283;22557;-73
2023/07/06 05:11:45;;;;;;;17.00;5.30;;;;;;;25.30;100.00;98929.39;135031;1283;22537;-73
2023/07/06 05:14:48;;;;;;;19.40;4.50;;;;;;;25.36;100.00;98926.71;135041;1283;25627;-72
2023/07/06 05:17:50;;;;;;;15.20;4.90;;;;;;;25.84;100.00;98926.81;135102;1283;22545;-73
2023/07/06 05:20:56;;;;;;;18.00;4.70;;;;;;;26.41;100.00;98928.02;135084;1283;22557;-74
2023/07/06 05:23:59;;;;;;;17.00;4.80;;;;;;;26.39;100.00;98933.87;135034;1267;24365;-72
2023/07/06 05:27:02;;;;;;;20.20;4.90;;;;;;;26.14;100.00;98936.58;135071;1283;22536;-73
2023/07/06 05:30:05;;;;;;;15.90;4.60;;;;;;;25.34;100.00;98939.56;135067;1283;22536;-73
2023/07/06 05:33:07;;;;;;;20.40;4.80;;;;;;;25.52;100.00;98942.17;135085;1267;22530;-73
2023/07/06 05:36:09;;;;;;;19.30;4.80;;;;;;;25.53;100.00;98942.75;135062;1267;22663;-73
2023/07/06 05:39:12;;;;;;;15.90;4.60;;;;;;;25.75;100.00;98935.88;135057;1267;22984;-73
2023/07/06 05:42:14;;;;;;;17.80;4.80;;;;;;;25.61;100.00;98938.34;135078;1283;22542;-73
2023/07/06 05:45:17;;;;;;;17.10;4.50;;;;;;;25.13;100.00;98944.36;135097;1267;22537;-74
2023/07/06 05:48:19;;;;;;;15.30;4.70;;;;;;;25.13;100.00;98949.73;135097;1283;22599;-73
2023/07/06 05:51:22;;;;;;;18.00;4.50;;;;;;;25.48;100.00;98952.52;135047;1283;22797;-76
2023/07/06 05:54:24;;;;;;;16.10;4.70;;;;;;;26.04;100.00;98958.76;135112;1283;22523;-72
2023/07/06 05:57:27;;;;;;;18.30;4.90;;;;;;;25.73;100.00;98968.83;135073;1283;25415;-73
2023/07/06 06:00:33;;;;;;;14.80;4.30;;;;;;;25.86;100.00;98975.69;135098;1283;22569;-72
2023/07/06 06:03:36;;;;;;;20.10;5.10;;;;;;;25.83;100.00;98976.52;134995;1267;22541;-72
2023/07/06 06:06:38;;;;;;;16.70;4.20;;;;;;;25.95;100.00;98976.83;135016;1283;22546;-72
2023/07/06 06:09:41;;;;;;;19.10;4.50;;;;;;;26.31;100.00;98980.65;135061;1283;22555;-73
2023/07/06 06:12:44;;;;;;;17.80;4.20;;;;;;;26.11;100.00;98983.52;135043;1266;22536;-73
2023/07/06 06:15:47;;;;;;;17.30;4.70;;;;;;;26.26;100.00;98990.25;135081;1283;22547;-73
2023/07/06 06:18:50;;;;;;;16.20;4.60;;;;;;;26.06;100.00;98986.88;135045;1283;22539;-71
2023/07/06 06:21:53;;;;;;;14.60;3.80;;;;;;;26.28;100.00;98987.95;135097;1283;24434;-75
2023/07/06 06:24:56;;;;;;;14.10;4.20;;;;;;;26.10;100.00;98998.74;135097;1283;22530;-75
2023/07/06 06:27:58;;;;;;;19.10;5.00;;;;;;;26.57;100.00;98999.64;135050;1283;22578;-75
2023/07/06 06:31:01;;;;;;;15.70;3.90;;;;;;;26.65;100.00;98997.25;135078;1283;22535;-74
2023/07/06 06:34:03;;;;;;;19.60;4.20;;;;;;;26.08;100.00;99003.04;135091;1283;22532;-75
2023/07/06 06:37:06;;;;;;;14.70;4.20;;;;;;;26.36;100.00;99007.58;135077;1283;26590;-75
2023/07/06 06:40:09;;;;;;;14.30;4.20;;;;;;;26.54;100.00;99001.71;135085;1283;24398;-74
2023/07/06 06:43:12;;;;;;;14.60;4.20;;;;;;;26.61;100.00;99004.60;135074;1283;22630;-74
2023/07/06 06:46:15;;;;;;;13.60;4.20;;;;;;;26.62;100.00;99001.94;135043;1283;22537;-73
2023/07/06 06:49:18;;;;;;;16.90;3.90;;;;;;;26.84;100.00;98999.74;135066;1283;22545;-75
2023/07/06 06:52:21;;;;;;;15.10;4.00;;;;;;;26.81;100.00;99006.27;135033;1283;25367;-72
2023/07/06 06:55:24;;;;;;;12.00;3.30;;;;;;;27.31;100.00;99000.56;135062;1283;22578;-74
2023/07/06 06:58:27;;;;;;;14.00;3.80;;;;;;;27.44;100.00;99002.23;135107;1283;22550;-74
2023/07/06 07:01:30;;;;;;;13.30;3.60;;;;;;;27.27;100.00;99003.33;135022;1283;26613;-74
2023/07/06 07:04:33;;;;;;;14.80;4.20;;;;;;;27.89;100.00;99003.33;135047;1283;22541;-74
2023/07/06 07:07:37;;;;;;;13.00;3.70;;;;;;;26.39;100.00;99011.26;135059;1283;26610;-74
2023/07/06 07:10:40;;;;;;;15.60;3.80;;;;;;;27.72;100.00;99007.94;135083;1283;22642;-72
2023/07/06 07:13:42;;;;;;;15.20;4.00;;;;;;;27.99;100.00;99016.31;135096;1283;22683;-73
2023/07/06 07:16:45;;;;;;;14.10;3.80;;;;;;;28.20;97.84;99022.15;135023;1283;22556;-73
2023/07/06 07:19:48;;;;;;;15.70;3.60;;;;;;;28.04;89.26;99027.48;135060;1283;22568;-73
2023/07/06 07:22:50;;;;;;;20.20;4.60;;;;;;;28.43;81.71;99026.27;135075;1283;22539;-74
2023/07/06 07:25:53;;;;;;;13.00;3.50;;;;;;;28.99;79.42;99027.42;135099;1267;22533;-74
2023/07/06 07:28:56;;;;;;;14.00;3.70;;;;;;;28.70;73.15;99030.10;135083;1283;22538;-74
2023/07/06 07:31:58;;;;;;;18.90;4.00;;;;;;;28.82;71.41;99033.32;135017;1283;22553;-76
2023/07/06 07:35:01;;;;;;;9.10;3.20;;;;;;;28.65;67.96;99034.29;135055;1267;22619;-75
2023/07/06 07:38:03;;;;;;;11.10;3.30;;;;;;;28.85;67.82;99041.10;135083;1283;25292;-74
2023/07/06 07:41:06;;;;;;;11.60;3.10;;;;;;;28.17;67.49;99046.49;135089;1283;24223;-74
2023/07/06 07:44:08;;;;;;;13.90;3.60;;;;;;;28.10;65.67;99042.52;135060;1283;22555;-75
2023/07/06 07:47:11;;;;;;;17.20;3.60;;;;;;;28.13;66.20;99045.48;135073;1260;22550;-73
2023/07/06 07:50:14;;;;;;;15.10;3.70;;;;;;;27.89;66.56;99046.45;135101;1265;22540;-74
2023/07/06 07:53:16;;;;;;;11.50;3.20;;;;;;;27.89;66.40;99043.66;135104;1283;22599;-75
2023/07/06 07:56:19;;;;;;;12.40;3.40;;;;;;;27.92;64.41;99052.59;135070;1267;22559;-75
2023/07/06 07:59:23;;;;;;;9.80;3.30;;;;;;;27.87;63.09;99054.06;135084;1283;22576;-72
2023/07/06 08:02:26;;;;;;;14.20;3.70;;;;;;;27.84;60.28;99062.45;135108;1268;22535;-73
2023/07/06 08:05:28;;;;;;;15.20;3.70;;;;;;;27.96;59.23;99062.87;135093;1283;22549;-76
2023/07/06 08:08:32;;;;;;;12.40;3.30;;;;;;;27.41;61.78;99071.63;134982;1283;22620;-74
2023/07/06 08:11:34;;;;;;;12.00;3.30;;;;;;;27.18;62.86;99072.38;135081;1267;22533;-74
2023/07/06 08:14:37;;;;;;;15.80;3.70;;;;;;;27.34;63.41;99071.14;135130;1283;22598;-72
2023/07/06 08:17:40;;;;;;;11.50;3.50;;;;;;;27.15;61.59;99072.61;135347;1280;22601;-72
2023/07/06 08:20:44;;;;;;;11.80;3.30;;;;;;;27.17;59.87;99078.88;135331;1281;22526;-74
2023/07/06 08:23:47;;;;;;;12.00;3.20;;;;;;;27.74;57.59;99077.91;135324;1281;22536;-75
2023/07/06 08:26:50;;;;;;;16.00;3.20;;;;;;;27.08;58.84;99083.47;135355;1281;22523;-76
2023/07/06 08:29:53;;;;;;;17.80;3.90;;;;;;;27.03;59.25;99079.50;135273;1281;22533;-75
2023/07/06 08:32:56;;;;;;;14.80;3.20;;;;;;;27.16;58.61;99080.59;135303;1281;23280;-72
2023/07/06 08:35:58;;;;;;;13.90;3.30;;;;;;;26.62;59.49;99076.94;135236;1271;22545;-74
2023/07/06 08:39:02;;;;;;;13.00;3.30;;;;;;;26.86;57.99;99082.36;135342;1281;22540;-75
2023/07/06 08:42:09;;;;;;;11.70;3.20;;;;;;;26.62;57.14;99087.71;135360;1271;22580;-75
2023/07/06 08:45:11;;;;;;;11.90;3.20;;;;;;;27.03;55.97;99085.11;135341;1281;25292;-74
2023/07/06 08:48:14;;;;;;;10.60;3.00;;;;;;;27.33;55.75;99085.20;135376;1263;22523;-73
2023/07/06 08:51:17;;;;;;;10.30;3.00;;;;;;;27.09;56.82;99086.42;135225;1281;22527;-72
2023/07/06 08:54:19;;;;;;;14.60;3.50;;;;;;;27.29;56.96;99086.52;135352;1281;25489;-74
2023/07/06 08:57:22;;;;;;;17.30;3.30;;;;;;;27.46;55.87;99087.21;135319;1281;22565;-74
2023/07/06 09:00:25;;;;;;;16.40;3.50;;;;;;;27.83;55.75;99083.00;135374;1281;22516;-74
2023/07/06 09:03:27;;;;;;;13.90;3.50;;;;;;;27.64;55.81;99091.07;135240;1281;22522;-73
2023/07/06 09:06:30;;;;;;;12.50;3.30;;;;;;;27.84;55.21;99095.95;135330;1281;22541;-72
2023/07/06 09:09:38;;;;;;;11.70;3.20;;;;;;;28.40;55.52;99094.16;135348;1261;22564;-74
2023/07/06 09:12:41;;;;;;;14.20;3.20;;;;;;;28.96;50.64;99092.33;135317;1281;22629;-74
2023/07/06 09:15:44;;;;;;;15.10;3.90;;;;;;;28.98;50.39;99092.13;135360;1281;22569;-75
2023/07/06 09:18:46;;;;;;;10.10;3.20;;;;;;;28.92;50.18;99091.82;135327;1268;22519;-74
2023/07/06 09:21:50;;;;;;;10.60;3.20;;;;;;;28.90;48.50;99098.84;135331;1264;22522;-74
2023/07/06 09:24:53;;;;;;;12.30;3.20;;;;;;;29.17;46.12;99099.18;135387;1281;22545;-74
2023/07/06 09:27:56;;;;;;;12.10;3.30;;;;;;;29.32;43.97;99100.41;135325;1281;22626;-74
2023/07/06 09:30:58;;;;;;;12.40;3.30;;;;;;;29.25;45.03;99100.52;135311;1281;22536;-73
2023/07/06 09:34:01;;;;;;;11.90;3.50;;;;;;;29.98;44.93;99095.39;135234;1281;22537;-73
2023/07/06 09:37:03;;;;;;;11.30;3.40;;;;;;;30.13;43.14;99097.21;135199;1281;25235;-74
2023/07/06 09:40:06;;;;;;;11.40;3.30;;;;;;;30.63;39.76;99089.25;135351;1281;25610;-74
2023/07/06 09:43:10;;;;;;;16.60;3.40;;;;;;;30.72;40.13;99085.40;135369;1281;22539;-74
2023/07/06 09:46:14;;;;;;;12.90;3.30;;;;;;;31.03;37.89;99086.19;135318;1281;22527;-75
2023/07/06 09:49:17;;;;;;;13.70;3.60;;;;;;;30.45;38.55;99090.70;135283;1281;22537;-72
2023/07/06 09:52:24;;;;;;;13.70;3.70;;;;;;;30.60;37.56;99089.55;135310;1281;24209;-73
2023/07/06 09:55:29;;;;;;;13.50;3.40;;;;;;;30.79;37.10;99089.71;135289;1263;22528;-74
2023/07/06 09:58:33;;;;;;;12.90;3.10;;;;;;;30.82;37.66;99085.70;135263;1257;22569;-72
2023/07/06 10:01:35;;;;;;;14.30;3.60;;;;;;;30.45;38.68;99087.59;135320;1281;22530;-74
2023/07/06 10:04:38;;;;;;;14.60;3.60;;;;;;;29.60;40.77;99093.77;135264;1264;22555;-73
2023/07/06 10:07:40;;;;;;;14.80;3.70;;;;;;;30.26;38.65;99094.98;135330;1281;22621;-74
2023/07/06 10:10:43;;;;;;;13.00;3.70;;;;;;;30.56;37.57;99087.79;135209;1281;22749;-73
2023/07/06 10:13:46;;;;;;;12.60;3.60;;;;;;;31.04;37.01;99087.98;135252;1281;22573;-72
2023/07/06 10:16:48;;;;;;;12.80;3.70;;;;;;;29.99;39.60;99093.68;135239;1281;23921;-73
2023/07/06 10:19:51;;;;;;;11.10;3.60;;;;;;;30.64;38.55;99088.73;135296;1281;22526;-73
2023/07/06 10:22:53;;;;;;;14.20;3.50;;;;;;;30.86;38.33;99094.34;135251;1281;25321;-71
2023/07/06 10:25:56;;;;;;;12.00;3.20;;;;;;;31.02;36.67;99094.98;135245;1281;22713;-73
2023/07/06 10:28:58;;;;;;;14.80;3.70;;;;;;;30.92;37.09;99095.25;135292;1281;22531;-75
2023/07/06 10:32:04;;;;;;;13.70;3.60;;;;;;;30.62;37.98;99097.53;135269;1281;22599;-73
2023/07/06 10:35:06;;;;;;;15.50;3.90;;;;;;;30.51;37.31;99103.59;135341;1265;22557;-72
2023/07/06 10:38:09;;;;;;;13.00;3.90;;;;;;;30.30;37.34;99103.64;135276;1281;22548;-74
2023/07/06 10:41:11;;;;;;;10.60;3.50;;;;;;;30.38;36.62;99108.36;135333;1281;22521;-75
2023/07/06 10:44:15;;;;;;;13.30;3.70;;;;;;;30.08;37.43;99120.38;135313;1281;25324;-72
2023/07/06 10:47:18;;;;;;;12.70;3.50;;;;;;;29.99;37.36;99125.80;135334;1281;22526;-74
2023/07/06 10:50:22;;;;;;;12.20;3.50;;;;;;;30.31;37.64;99121.48;135319;1281;22542;-75
2023/07/06 10:53:25;;;;;;;12.00;3.50;;;;;;;30.63;37.39;99127.92;135274;1263;22530;-72
2023/07/06 10:56:28;;;;;;;13.60;3.60;;;;;;;31.15;36.64;99133.71;135147;1281;22586;-72
2023/07/06 10:59:30;;;;;;;11.80;3.50;;;;;;;29.79;40.00;99143.59;135328;1265;22541;-72
2023/07/06 11:02:33;;;;;;;12.50;3.40;;;;;;;29.68;39.12;99147.10;135305;1281;22530;-74
2023/07/06 11:05:35;;;;;;;14.20;3.30;;;;;;;30.13;38.67;99152.23;135310;1281;22553;-75
2023/07/06 11:08:38;;;;;;;17.40;3.90;;;;;;;30.53;37.85;99154.67;135292;1281;22545;-75
2023/07/06 11:11:41;;;;;;;12.40;3.70;;;;;;;30.58;36.88;99153.16;135295;1281;22540;-74
2023/07/06 11:14:44;;;;;;;12.10;3.50;;;;;;;31.02;36.81;99153.59;135327;1281;22552;-74
2023/07/06 11:17:48;;;;;;;14.80;3.60;;;;;;;30.62;35.43;99160.86;135328;1281;22526;-74
2023/07/06 11:20:51;;;;;;;14.40;3.60;;;;;;;30.79;36.01;99163.14;135328;1264;22618;-74
2023/07/06 11:23:54;;;;;;;14.90;3.50;;;;;;;30.55;36.44;99170.94;135275;1281;22556;-74
2023/07/06 11:26:57;;;;;;;12.10;3.50;;;;;;;30.39;37.11;99171.86;135300;1281;22537;-77
2023/07/06 11:30:01;;;;;;;12.00;3.30;;;;;;;29.91;36.92;99169.16;135317;1281;22549;-76
2023/07/06 11:33:06;;;;;;;15.70;4.50;;;;;;;30.14;36.97;99170.44;135320;1281;22529;-73
2023/07/06 11:36:08;;;;;;;10.30;3.20;;;;;;;29.96;36.64;99172.63;135269;1281;22650;-73
2023/07/06 11:39:11;;;;;;;11.80;3.60;;;;;;;29.83;36.51;99171.04;135335;1281;22551;-72
2023/07/06 11:42:13;;;;;;;10.80;3.50;;;;;;;29.67;36.88;99167.73;135300;1264;24245;-74
2023/07/06 11:45:16;;;;;;;15.70;3.40;;;;;;;30.17;36.22;99170.64;135307;1281;23404;-74
2023/07/06 11:48:18;;;;;;;12.10;3.60;;;;;;;30.43;35.70;99175.44;135294;1262;22626;-75
2023/07/06 11:51:21;;;;;;;12.80;3.40;;;;;;;30.09;36.23;99173.95;135248;1281;22640;-76
2023/07/06 11:54:40;;;;;;;14.20;3.80;;;;;;;29.86;36.35;99175.66;135293;1264;22547;-74
2023/07/06 11:57:44;;;;;;;13.50;3.80;;;;;;;30.13;36.00;99175.07;135326;1281;22548;-75
2023/07/06 12:00:52;;;;;;;14.40;3.60;;;;;;;30.14;36.33;99174.35;135290;1281;22551;-72
2023/07/06 12:03:54;;;;;;;14.20;3.50;;;;;;;30.40;35.78;99173.98;135277;1281;22538;-73
2023/07/06 12:06:57;;;;;;;13.00;3.60;;;;;;;30.64;34.73;99175.73;135262;1281;23928;-73
2023/07/06 12:09:59;;;;;;;15.70;4.00;;;;;;;31.46;34.24;99169.61;135298;1263;25548;-74
2023/07/06 12:13:04;;;;;;;12.20;3.80;;;;;;;31.48;33.64;99170.08;135271;1281;22606;-73
2023/07/06 12:16:07;;;;;;;16.10;4.00;;;;;;;30.92;34.87;99166.20;135301;1281;22535;-74
2023/07/06 12:19:10;;;;;;;13.60;3.90;;;;;;;30.91;34.23;99162.90;135308;1265;24188;-75
2023/07/06 12:22:12;;;;;;;15.00;3.90;;;;;;;31.40;32.95;99158.86;135285;1264;22533;-75
2023/07/06 12:25:15;;;;;;;18.40;4.20;;;;;;;31.31;33.32;99161.23;135285;1281;22536;-74
2023/07/06 12:28:18;;;;;;;13.50;3.90;;;;;;;31.43;32.89;99156.48;135270;1263;22552;-73
2023/07/06 12:31:22;;;;;;;14.90;4.00;;;;;;;31.47;33.41;99155.14;135281;1281;22551;-73
2023/07/06 12:34:25;;;;;;;12.60;4.00;;;;;;;32.16;33.03;99144.02;135312;1281;22552;-74
2023/07/06 12:37:28;;;;;;;15.60;4.30;;;;;;;32.47;32.73;99148.32;135290;1264;24368;-73
2023/07/06 12:40:30;;;;;;;16.00;4.10;;;;;;;32.60;32.47;99132.98;135291;1281;22628;-75
2023/07/06 12:43:34;;;;;;;17.80;4.20;;;;;;;32.69;32.58;99131.53;135324;1281;22531;-75
2023/07/06 12:46:36;;;;;;;14.30;3.80;;;;;;;32.74;32.94;99130.99;135269;1265;22624;-73
2023/07/06 12:49:39;;;;;;;12.20;3.80;;;;;;;29.76;36.65;99138.73;135271;1264;24268;-73
2023/07/06 12:52:42;;;;;;;16.80;4.10;;;;;;;28.03;39.65;99134.27;135302;1264;22635;-73
2023/07/06 12:55:45;;;;;;;13.20;4.10;;;;;;;28.48;40.00;99133.58;135286;1264;24346;-73
2023/07/06 12:58:47;;;;;;;14.50;4.00;;;;;;;29.50;39.31;99126.78;135233;1281;22556;-72
2023/07/06 13:01:50;;;;;;;15.60;4.10;;;;;;;30.12;38.85;99124.66;135228;1281;22526;-75
2023/07/06 13:04:52;;;;;;;16.90;4.00;;;;;;;30.60;37.69;99132.30;135243;1281;22539;-73
2023/07/06 13:07:55;;;;;;;17.80;4.40;;;;;;;29.12;39.35;99132.13;135194;1269;22632;-72
2023/07/06 13:10:59;;;;;;;15.70;3.50;;;;;;;27.80;42.32;99132.51;135273;1281;22564;-71
2023/07/06 13:14:02;;;;;;;20.00;4.70;;;;;;;27.52;43.63;99139.27;135309;1263;22848;-74
2023/07/06 13:17:05;;;;;;;16.70;3.70;;;;;;;27.89;42.44;99130.19;135331;1281;22584;-72
2023/07/06 13:20:07;;;;;;;15.60;4.10;;;;;;;28.94;40.32;99131.40;135237;1281;25492;-72
2023/07/06 13:23:10;;;;;;;13.30;3.90;;;;;;;28.64;41.72;99125.67;135300;1263;23143;-73
2023/07/06 13:26:12;;;;;;;15.50;3.80;;;;;;;28.07;41.99;99125.54;135359;1280;22523;-71
2023/07/06 13:29:16;;;;;;;13.50;3.90;;;;;;;28.53;41.15;99123.52;135327;1280;22523;-71
2023/07/06 13:32:20;;;;;;;19.70;4.20;;;;;;;28.70;40.61;99128.04;135370;1280;23887;-73
2023/07/06 13:35:23;;;;;;;16.10;4.40;;;;;;;28.21;40.93;99128.34;135330;1280;22565;-72
2023/07/06 13:38:28;;;;;;;12.20;3.50;;;;;;;27.68;41.93;99129.42;135363;1280;22526;-74
2023/07/06 13:41:30;;;;;;;16.60;4.10;;;;;;;27.63;42.72;99125.27;135328;1280;23904;-73
2023/07/06 13:44:33;;;;;;;15.00;4.20;;;;;;;27.64;42.28;99126.72;135359;1280;22642;-72
2023/07/06 13:47:35;;;;;;;11.30;3.80;;;;;;;27.59;42.70;99128.05;135358;1280;22545;-72
2023/07/06 13:50:38;;;;;;;15.10;4.20;;;;;;;27.60;41.48;99126.91;135363;1280;22552;-73
2023/07/06 13:53:40;;;;;;;15.10;4.10;;;;;;;27.51;41.06;99123.23;135332;1280;22529;-73
2023/07/06 13:56:45;;;;;;;13.80;3.50;;;;;;;27.66;41.94;99125.40;135369;1280;22560;-72
2023/07/06 13:59:48;;;;;;;14.80;4.00;;;;;;;27.96;41.33;99121.95;135378;1280;22638;-71
2023/07/06 14:02:51;;;;;;;13.80;4.00;;;;;;;28.40;40.74;99120.20;135360;1265;24187;-74
2023/07/06 14:05:54;;;;;;;11.30;3.90;;;;;;;28.73;38.17;99118.03;135384;1280;22538;-71
2023/07/06 14:08:56;;;;;;;14.40;3.90;;;;;;;28.89;37.40;99115.17;135326;1280;22547;-71
2023/07/06 14:11:58;;;;;;;13.60;3.80;;;;;;;29.14;37.68;99113.64;135314;1264;22559;-72
2023/07/06 14:15:01;;;;;;;11.70;3.70;;;;;;;28.90;36.37;99119.41;135346;1280;22527;-73
2023/07/06 14:18:03;;;;;;;13.40;3.50;;;;;;;29.29;34.71;99118.11;135349;1280;22553;-73
2023/07/06 14:21:06;;;;;;;14.50;4.10;;;;;;;29.76;35.66;99118.11;135292;1280;22552;-71
2023/07/06 14:24:08;;;;;;;15.70;4.10;;;;;;;29.62;34.52;99115.39;135344;1265;22559;-75
2023/07/06 14:27:11;;;;;;;14.50;4.70;;;;;;;30.37;35.08;99118.85;135342;1264;22539;-74
2023/07/06 14:30:14;;;;;;;15.80;3.80;;;;;;;30.04;35.77;99122.16;135339;1280;22593;-74
2023/07/06 14:33:16;;;;;;;14.60;3.70;;;;;;;30.59;34.79;99120.16;135334;1280;22563;-72
2023/07/06 14:36:19;;;;;;;12.80;3.60;;;;;;;30.61;33.96;99126.84;135336;1280;22538;-73
2023/07/06 14:39:21;;;;;;;13.20;3.70;;;;;;;30.65;34.26;99120.55;135363;1261;22533;-73
2023/07/06 14:42:24;;;;;;;16.20;3.80;;;;;;;30.95;34.72;99120.48;135227;1265;22534;-71
2023/07/06 14:45:26;;;;;;;15.80;3.70;;;;;;;30.95;33.11;99121.02;135356;1271;22644;-75
2023/07/06 14:48:29;;;;;;;11.90;3.60;;;;;;;30.85;33.57;99118.63;135313;1281;22626;-74
2023/07/06 14:51:32;;;;;;;12.80;4.00;;;;;;;30.65;33.97;99118.71;135340;1280;25488;-73
2023/07/06 14:54:35;;;;;;;18.30;4.20;;;;;;;30.31;34.52;99116.79;135273;1280;22525;-73
2023/07/06 14:57:37;;;;;;;17.50;6.80;;;;;;;30.06;35.34;99116.91;135371;1257;22539;-74
2023/07/06 15:00:40;;;;;;;13.10;3.70;;;;;;;30.19;34.78;99113.27;135320;1281;22535;-72
2023/07/06 15:03:42;;;;;;;13.90;4.00;;;;;;;30.38;35.09;99112.06;135381;1280;22538;-77
2023/07/06 15:06:45;;;;;;;12.70;3.80;;;;;;;31.00;34.32;99105.02;135363;1281;22526;-73
2023/07/06 15:09:47;;;;;;;13.10;3.90;;;;;;;32.31;33.53;99101.04;135380;1265;22551;-72
2023/07/06 15:12:50;;;;;;;15.10;4.10;;;;;;;33.49;32.77;99106.66;135291;1280;22546;-74
2023/07/06 15:15:52;;;;;;;14.40;3.90;;;;;;;34.81;31.00;99110.24;135337;1281;22643;-74
2023/07/06 15:18:55;;;;;;;11.30;3.40;;;;;;;36.12;29.06;99107.52;135343;1280;22565;-73
2023/07/06 15:21:57;;;;;;;10.00;3.20;;;;;;;37.56;28.12;99109.98;135309;1281;23254;-74